This is the latest recevied weather packets stored in our database for station/object K7SFN. If no packets are shown the sender has not sent any weather packets the latest 10 day(s).
| Time | Temp. | Humidity | Pressure | Rain* | Wind** | Luminosity | Snow |
|---|---|---|---|---|---|---|---|
| 1777518604 | 16.11° C | 31% | 1017.5 hPa | 0 mm | - | - | - |
| 1777515304 | 17.22° C | 37% | 1016.9 hPa | 0 mm | - | - | - |
| 1777514104 | 17.78° C | 34% | 1016.8 hPa | 0 mm | - | - | - |
| 1777513204 | 17.78° C | 32% | 1016.8 hPa | 0 mm | - | - | - |
| 1777512304 | 17.78° C | 32% | 1016.8 hPa | 0 mm | - | - | - |
| 1777510804 | 18.89° C | 28% | 1016.9 hPa | 0 mm | - | - | - |
| 1777510504 | 18.89° C | 28% | 1016.9 hPa | 0 mm | - | - | - |
| 1777509304 | 19.44° C | 27% | 1016.8 hPa | 0 mm | - | - | - |
| 1777507804 | 20° C | 22% | 1016.8 hPa | 0 mm | - | - | - |
| 1777504804 | 20° C | 22% | 1017 hPa | 0 mm | - | - | - |
| 1777504204 | 20° C | 22% | 1017.2 hPa | 0 mm | - | - | - |
| 1777501205 | 18.33° C | 24% | 1017.8 hPa | 0 mm | - | - | - |
| 1777497905 | 20.56° C | 22% | 1018.1 hPa | 0 mm | - | - | - |
| 1777497605 | 20.56° C | 21% | 1018.2 hPa | 0 mm | - | - | - |
| 1777497304 | 20.56° C | 21% | 1018.2 hPa | 0 mm | - | - | - |
| 1777496404 | 20.56° C | 21% | 1018.2 hPa | 0 mm | - | - | - |
| 1777494605 | 20.56° C | 22% | 1018.6 hPa | 0 mm | - | - | - |
| 1777491605 | 18.33° C | 23% | 1019.2 hPa | 0 mm | - | - | - |
| 1777491305 | 18.33° C | 22% | 1019.3 hPa | 0 mm | - | - | - |
| 1777489205 | 17.22° C | 25% | 1019.7 hPa | 0 mm | - | - | - |
| 1777481405 | 12.78° C | 52% | 1020.8 hPa | 0 mm | - | - | - |
| 1777479604 | 11.67° C | 56% | 1020.6 hPa | 0 mm | - | - | - |
| 1777479304 | 11.11° C | 57% | 1020.6 hPa | 0 mm | - | - | - |
| 1777479004 | 11.11° C | 58% | 1020.8 hPa | 0 mm | - | - | - |
| 1777476304 | 8.89° C | 65% | 1021 hPa | 0 mm | - | - | - |
* Rain latest hour (hover to see other rain measurements)
** Current wind speed in m/s (hover to see current wind gust speed)